sensor_id;sensor_type;location;lat;lon;timestamp;P1;durP1;ratioP1;P2;durP2;ratioP2
4313;SDS011;2170;48.794;9.182;2022-11-15T00:00:30;8.30;;;7.50;;
4313;SDS011;2170;48.794;9.182;2022-11-15T00:02:57;6.70;;;6.00;;
4313;SDS011;2170;48.794;9.182;2022-11-15T00:05:24;7.67;;;7.03;;
4313;SDS011;2170;48.794;9.182;2022-11-15T00:07:51;6.13;;;5.73;;
4313;SDS011;2170;48.794;9.182;2022-11-15T00:10:18;5.63;;;5.23;;
4313;SDS011;2170;48.794;9.182;2022-11-15T00:12:45;5.40;;;4.90;;
4313;SDS011;2170;48.794;9.182;2022-11-15T00:15:12;7.30;;;5.93;;
4313;SDS011;2170;48.794;9.182;2022-11-15T00:17:41;6.37;;;5.80;;
4313;SDS011;2170;48.794;9.182;2022-11-15T00:20:08;6.03;;;5.43;;
4313;SDS011;2170;48.794;9.182;2022-11-15T00:22:36;7.37;;;6.67;;
4313;SDS011;2170;48.794;9.182;2022-11-15T00:25:04;8.87;;;6.37;;
4313;SDS011;2170;48.794;9.182;2022-11-15T00:27:31;4.80;;;4.50;;
4313;SDS011;2170;48.794;9.182;2022-11-15T00:29:58;6.90;;;5.77;;
4313;SDS011;2170;48.794;9.182;2022-11-15T00:32:25;7.40;;;6.80;;
4313;SDS011;2170;48.794;9.182;2022-11-15T00:34:53;6.87;;;6.17;;
4313;SDS011;2170;48.794;9.182;2022-11-15T00:37:20;7.13;;;5.30;;
4313;SDS011;2170;48.794;9.182;2022-11-15T00:39:47;6.50;;;5.97;;
4313;SDS011;2170;48.794;9.182;2022-11-15T00:42:14;4.80;;;4.40;;
4313;SDS011;2170;48.794;9.182;2022-11-15T00:44:41;5.30;;;4.80;;
4313;SDS011;2170;48.794;9.182;2022-11-15T00:47:08;5.33;;;4.67;;
4313;SDS011;2170;48.794;9.182;2022-11-15T00:49:35;4.30;;;3.90;;
4313;SDS011;2170;48.794;9.182;2022-11-15T00:52:04;7.70;;;4.47;;
4313;SDS011;2170;48.794;9.182;2022-11-15T00:54:31;4.60;;;4.20;;
4313;SDS011;2170;48.794;9.182;2022-11-15T00:56:58;5.20;;;4.70;;
4313;SDS011;2170;48.794;9.182;2022-11-15T00:59:25;5.47;;;4.97;;
4313;SDS011;2170;48.794;9.182;2022-11-15T01:01:52;7.03;;;5.37;;
4313;SDS011;2170;48.794;9.182;2022-11-15T01:04:19;8.43;;;5.20;;
4313;SDS011;2170;48.794;9.182;2022-11-15T01:06:46;5.30;;;4.70;;
4313;SDS011;2170;48.794;9.182;2022-11-15T01:09:15;5.77;;;5.27;;
4313;SDS011;2170;48.794;9.182;2022-11-15T01:11:42;5.73;;;4.67;;
4313;SDS011;2170;48.794;9.182;2022-11-15T01:14:09;5.40;;;4.90;;
4313;SDS011;2170;48.794;9.182;2022-11-15T01:16:36;5.20;;;4.80;;
4313;SDS011;2170;48.794;9.182;2022-11-15T01:19:03;5.47;;;5.07;;
4313;SDS011;2170;48.794;9.182;2022-11-15T01:21:30;5.93;;;5.30;;
4313;SDS011;2170;48.794;9.182;2022-11-15T01:23:57;6.87;;;6.27;;
4313;SDS011;2170;48.794;9.182;2022-11-15T01:26:26;6.67;;;6.07;;
4313;SDS011;2170;48.794;9.182;2022-11-15T01:28:53;6.50;;;5.90;;
4313;SDS011;2170;48.794;9.182;2022-11-15T01:31:20;7.20;;;6.43;;
4313;SDS011;2170;48.794;9.182;2022-11-15T01:33:48;6.00;;;5.50;;
4313;SDS011;2170;48.794;9.182;2022-11-15T01:36:16;6.80;;;6.30;;
4313;SDS011;2170;48.794;9.182;2022-11-15T01:38:43;7.37;;;6.10;;
4313;SDS011;2170;48.794;9.182;2022-11-15T01:41:18;7.33;;;6.73;;
4313;SDS011;2170;48.794;9.182;2022-11-15T01:43:48;6.43;;;5.93;;
4313;SDS011;2170;48.794;9.182;2022-11-15T01:46:21;8.57;;;6.20;;
4313;SDS011;2170;48.794;9.182;2022-11-15T01:48:49;8.50;;;6.30;;
4313;SDS011;2170;48.794;9.182;2022-11-15T01:51:17;7.20;;;6.50;;
4313;SDS011;2170;48.794;9.182;2022-11-15T01:53:45;6.30;;;5.80;;
4313;SDS011;2170;48.794;9.182;2022-11-15T01:56:14;7.70;;;7.00;;
4313;SDS011;2170;48.794;9.182;2022-11-15T01:58:41;7.37;;;6.33;;
4313;SDS011;2170;48.794;9.182;2022-11-15T02:01:12;6.73;;;6.03;;
4313;SDS011;2170;48.794;9.182;2022-11-15T02:03:41;7.30;;;5.97;;
4313;SDS011;2170;48.794;9.182;2022-11-15T02:06:10;7.20;;;6.37;;
4313;SDS011;2170;48.794;9.182;2022-11-15T02:08:37;6.97;;;6.37;;
4313;SDS011;2170;48.794;9.182;2022-11-15T02:11:04;7.30;;;5.47;;
4313;SDS011;2170;48.794;9.182;2022-11-15T02:13:31;7.37;;;5.83;;
4313;SDS011;2170;48.794;9.182;2022-11-15T02:15:59;5.80;;;5.30;;
4313;SDS011;2170;48.794;9.182;2022-11-15T02:18:31;5.63;;;5.13;;
4313;SDS011;2170;48.794;9.182;2022-11-15T02:21:06;6.40;;;5.37;;
4313;SDS011;2170;48.794;9.182;2022-11-15T02:29:05;6.83;;;5.50;;
4313;SDS011;2170;48.794;9.182;2022-11-15T02:31:38;5.40;;;4.90;;
4313;SDS011;2170;48.794;9.182;2022-11-15T02:34:08;6.07;;;5.50;;
4313;SDS011;2170;48.794;9.182;2022-11-15T02:36:40;7.83;;;5.37;;
4313;SDS011;2170;48.794;9.182;2022-11-15T02:39:09;5.43;;;4.93;;
4313;SDS011;2170;48.794;9.182;2022-11-15T02:41:39;5.93;;;5.47;;
4313;SDS011;2170;48.794;9.182;2022-11-15T02:44:08;5.33;;;4.90;;
4313;SDS011;2170;48.794;9.182;2022-11-15T02:46:40;4.90;;;4.50;;
4313;SDS011;2170;48.794;9.182;2022-11-15T02:49:27;5.17;;;4.70;;
4313;SDS011;2170;48.794;9.182;2022-11-15T02:51:55;6.23;;;4.70;;
4313;SDS011;2170;48.794;9.182;2022-11-15T02:54:23;6.23;;;5.03;;
4313;SDS011;2170;48.794;9.182;2022-11-15T02:56:50;5.83;;;5.33;;
4313;SDS011;2170;48.794;9.182;2022-11-15T03:02:05;5.53;;;5.13;;
4313;SDS011;2170;48.794;9.182;2022-11-15T03:04:38;5.53;;;4.77;;
4313;SDS011;2170;48.794;9.182;2022-11-15T03:07:10;5.13;;;4.77;;
4313;SDS011;2170;48.794;9.182;2022-11-15T03:09:39;8.70;;;5.23;;
4313;SDS011;2170;48.794;9.182;2022-11-15T03:12:08;4.90;;;4.50;;
4313;SDS011;2170;48.794;9.182;2022-11-15T03:14:37;8.13;;;5.03;;
4313;SDS011;2170;48.794;9.182;2022-11-15T03:17:10;4.57;;;4.23;;
4313;SDS011;2170;48.794;9.182;2022-11-15T03:19:41;6.00;;;4.80;;
4313;SDS011;2170;48.794;9.182;2022-11-15T03:22:11;5.90;;;4.47;;
4313;SDS011;2170;48.794;9.182;2022-11-15T03:24:38;6.60;;;5.23;;
4313;SDS011;2170;48.794;9.182;2022-11-15T03:27:06;5.30;;;4.80;;
4313;SDS011;2170;48.794;9.182;2022-11-15T03:29:34;5.47;;;4.97;;
4313;SDS011;2170;48.794;9.182;2022-11-15T03:32:03;5.37;;;4.90;;
4313;SDS011;2170;48.794;9.182;2022-11-15T03:34:34;4.80;;;4.40;;
4313;SDS011;2170;48.794;9.182;2022-11-15T03:37:02;7.40;;;5.67;;
4313;SDS011;2170;48.794;9.182;2022-11-15T03:39:30;5.20;;;4.70;;
4313;SDS011;2170;48.794;9.182;2022-11-15T03:42:01;5.10;;;4.70;;
4313;SDS011;2170;48.794;9.182;2022-11-15T03:44:40;5.97;;;5.37;;
4313;SDS011;2170;48.794;9.182;2022-11-15T03:47:10;5.10;;;4.70;;
4313;SDS011;2170;48.794;9.182;2022-11-15T03:49:41;5.73;;;5.10;;
4313;SDS011;2170;48.794;9.182;2022-11-15T03:52:09;5.00;;;4.50;;
4313;SDS011;2170;48.794;9.182;2022-11-15T03:54:44;5.60;;;5.20;;
4313;SDS011;2170;48.794;9.182;2022-11-15T03:57:13;5.80;;;5.30;;
4313;SDS011;2170;48.794;9.182;2022-11-15T03:59:41;5.73;;;4.90;;
4313;SDS011;2170;48.794;9.182;2022-11-15T04:02:08;5.60;;;5.10;;
4313;SDS011;2170;48.794;9.182;2022-11-15T04:04:35;5.80;;;5.03;;
4313;SDS011;2170;48.794;9.182;2022-11-15T04:07:03;5.73;;;4.90;;
4313;SDS011;2170;48.794;9.182;2022-11-15T04:09:30;5.00;;;4.60;;
4313;SDS011;2170;48.794;9.182;2022-11-15T04:11:57;5.33;;;4.93;;
4313;SDS011;2170;48.794;9.182;2022-11-15T04:14:24;5.40;;;4.90;;
4313;SDS011;2170;48.794;9.182;2022-11-15T04:16:51;5.43;;;4.93;;
4313;SDS011;2170;48.794;9.182;2022-11-15T04:19:18;5.27;;;4.77;;
4313;SDS011;2170;48.794;9.182;2022-11-15T04:22:04;5.97;;;5.57;;
4313;SDS011;2170;48.794;9.182;2022-11-15T04:25:00;7.77;;;4.80;;
4313;SDS011;2170;48.794;9.182;2022-11-15T04:27:28;5.80;;;5.20;;
4313;SDS011;2170;48.794;9.182;2022-11-15T04:29:55;5.73;;;5.23;;
4313;SDS011;2170;48.794;9.182;2022-11-15T04:32:23;5.33;;;4.93;;
4313;SDS011;2170;48.794;9.182;2022-11-15T04:34:50;5.40;;;5.00;;
4313;SDS011;2170;48.794;9.182;2022-11-15T04:37:19;5.90;;;4.90;;
4313;SDS011;2170;48.794;9.182;2022-11-15T04:39:46;5.13;;;4.73;;
4313;SDS011;2170;48.794;9.182;2022-11-15T04:42:13;7.30;;;5.23;;
4313;SDS011;2170;48.794;9.182;2022-11-15T04:44:40;5.50;;;5.10;;
4313;SDS011;2170;48.794;9.182;2022-11-15T04:47:07;6.47;;;5.33;;
4313;SDS011;2170;48.794;9.182;2022-11-15T04:49:34;5.33;;;4.83;;
4313;SDS011;2170;48.794;9.182;2022-11-15T04:52:01;6.93;;;4.73;;
4313;SDS011;2170;48.794;9.182;2022-11-15T04:54:30;6.00;;;5.40;;
4313;SDS011;2170;48.794;9.182;2022-11-15T04:56:57;5.27;;;4.87;;
4313;SDS011;2170;48.794;9.182;2022-11-15T04:59:24;5.90;;;5.50;;
4313;SDS011;2170;48.794;9.182;2022-11-15T05:01:51;7.10;;;6.40;;
4313;SDS011;2170;48.794;9.182;2022-11-15T05:04:18;10.57;;;8.83;;
4313;SDS011;2170;48.794;9.182;2022-11-15T05:06:44;10.30;;;9.30;;
4313;SDS011;2170;48.794;9.182;2022-11-15T05:09:11;6.50;;;5.90;;
4313;SDS011;2170;48.794;9.182;2022-11-15T05:11:40;7.43;;;6.83;;
4313;SDS011;2170;48.794;9.182;2022-11-15T05:14:07;6.83;;;6.17;;
4313;SDS011;2170;48.794;9.182;2022-11-15T05:16:35;7.77;;;6.33;;
4313;SDS011;2170;48.794;9.182;2022-11-15T05:19:02;7.90;;;7.10;;
4313;SDS011;2170;48.794;9.182;2022-11-15T05:21:29;9.93;;;9.03;;
4313;SDS011;2170;48.794;9.182;2022-11-15T05:23:56;29.30;;;26.13;;
4313;SDS011;2170;48.794;9.182;2022-11-15T05:26:23;41.10;;;33.70;;
4313;SDS011;2170;48.794;9.182;2022-11-15T05:28:53;16.90;;;12.53;;
4313;SDS011;2170;48.794;9.182;2022-11-15T05:31:20;9.10;;;7.40;;
4313;SDS011;2170;48.794;9.182;2022-11-15T05:33:48;7.77;;;6.30;;
4313;SDS011;2170;48.794;9.182;2022-11-15T05:36:16;6.00;;;5.50;;
4313;SDS011;2170;48.794;9.182;2022-11-15T05:38:44;6.00;;;5.50;;
4313;SDS011;2170;48.794;9.182;2022-11-15T05:41:12;6.43;;;5.40;;
4313;SDS011;2170;48.794;9.182;2022-11-15T05:43:39;7.50;;;5.50;;
4313;SDS011;2170;48.794;9.182;2022-11-15T05:46:09;5.37;;;4.97;;
4313;SDS011;2170;48.794;9.182;2022-11-15T05:48:36;5.60;;;5.10;;
4313;SDS011;2170;48.794;9.182;2022-11-15T05:51:04;7.40;;;5.87;;
4313;SDS011;2170;48.794;9.182;2022-11-15T05:53:31;6.23;;;5.73;;
4313;SDS011;2170;48.794;9.182;2022-11-15T05:55:59;5.90;;;5.23;;
4313;SDS011;2170;48.794;9.182;2022-11-15T05:58:26;6.40;;;5.60;;
4313;SDS011;2170;48.794;9.182;2022-11-15T06:00:53;7.00;;;6.30;;
4313;SDS011;2170;48.794;9.182;2022-11-15T06:03:22;7.17;;;6.30;;
4313;SDS011;2170;48.794;9.182;2022-11-15T06:05:49;6.37;;;5.80;;
4313;SDS011;2170;48.794;9.182;2022-11-15T06:08:16;8.17;;;6.67;;
4313;SDS011;2170;48.794;9.182;2022-11-15T06:10:43;10.33;;;7.50;;
4313;SDS011;2170;48.794;9.182;2022-11-15T06:13:10;8.13;;;7.33;;
4313;SDS011;2170;48.794;9.182;2022-11-15T06:15:37;9.07;;;8.27;;
4313;SDS011;2170;48.794;9.182;2022-11-15T06:18:04;9.30;;;7.70;;
4313;SDS011;2170;48.794;9.182;2022-11-15T06:20:32;7.87;;;7.17;;
4313;SDS011;2170;48.794;9.182;2022-11-15T06:23:00;7.37;;;6.57;;
4313;SDS011;2170;48.794;9.182;2022-11-15T06:25:27;7.23;;;6.63;;
4313;SDS011;2170;48.794;9.182;2022-11-15T06:27:55;9.17;;;7.40;;
4313;SDS011;2170;48.794;9.182;2022-11-15T06:30:23;8.60;;;7.70;;
4313;SDS011;2170;48.794;9.182;2022-11-15T06:32:50;8.07;;;7.37;;
4313;SDS011;2170;48.794;9.182;2022-11-15T06:35:17;8.80;;;7.90;;
4313;SDS011;2170;48.794;9.182;2022-11-15T06:37:46;10.10;;;9.07;;
4313;SDS011;2170;48.794;9.182;2022-11-15T06:40:13;9.60;;;8.70;;
4313;SDS011;2170;48.794;9.182;2022-11-15T06:42:40;12.10;;;8.77;;
4313;SDS011;2170;48.794;9.182;2022-11-15T06:45:07;8.37;;;7.43;;
4313;SDS011;2170;48.794;9.182;2022-11-15T06:47:34;8.13;;;7.40;;
4313;SDS011;2170;48.794;9.182;2022-11-15T06:50:01;7.10;;;6.40;;
4313;SDS011;2170;48.794;9.182;2022-11-15T06:52:28;9.60;;;8.17;;
4313;SDS011;2170;48.794;9.182;2022-11-15T06:54:58;10.70;;;9.67;;
4313;SDS011;2170;48.794;9.182;2022-11-15T06:57:26;8.60;;;7.53;;
4313;SDS011;2170;48.794;9.182;2022-11-15T06:59:53;8.33;;;7.50;;
4313;SDS011;2170;48.794;9.182;2022-11-15T07:02:20;8.40;;;7.53;;
4313;SDS011;2170;48.794;9.182;2022-11-15T07:04:47;9.53;;;7.60;;
4313;SDS011;2170;48.794;9.182;2022-11-15T07:07:14;11.00;;;9.30;;
4313;SDS011;2170;48.794;9.182;2022-11-15T07:09:41;9.70;;;8.70;;
4313;SDS011;2170;48.794;9.182;2022-11-15T07:12:09;10.40;;;8.33;;
4313;SDS011;2170;48.794;9.182;2022-11-15T07:14:36;10.70;;;9.60;;
4313;SDS011;2170;48.794;9.182;2022-11-15T07:17:03;12.43;;;9.10;;
4313;SDS011;2170;48.794;9.182;2022-11-15T07:19:30;12.10;;;8.20;;
4313;SDS011;2170;48.794;9.182;2022-11-15T07:21:58;12.63;;;9.03;;
4313;SDS011;2170;48.794;9.182;2022-11-15T07:24:25;9.97;;;9.03;;
4313;SDS011;2170;48.794;9.182;2022-11-15T07:26:52;11.97;;;9.53;;
4313;SDS011;2170;48.794;9.182;2022-11-15T07:29:20;9.83;;;8.83;;
4313;SDS011;2170;48.794;9.182;2022-11-15T07:31:47;9.60;;;8.23;;
4313;SDS011;2170;48.794;9.182;2022-11-15T07:34:16;9.73;;;8.00;;
4313;SDS011;2170;48.794;9.182;2022-11-15T07:36:43;14.17;;;7.93;;
4313;SDS011;2170;48.794;9.182;2022-11-15T07:39:10;14.40;;;9.20;;
4313;SDS011;2170;48.794;9.182;2022-11-15T07:41:39;21.43;;;8.30;;
4313;SDS011;2170;48.794;9.182;2022-11-15T07:44:06;13.67;;;7.50;;
4313;SDS011;2170;48.794;9.182;2022-11-15T07:46:34;8.80;;;7.00;;
4313;SDS011;2170;48.794;9.182;2022-11-15T07:49:01;19.70;;;8.60;;
4313;SDS011;2170;48.794;9.182;2022-11-15T07:51:28;10.30;;;8.27;;
4313;SDS011;2170;48.794;9.182;2022-11-15T07:53:55;8.03;;;7.23;;
4313;SDS011;2170;48.794;9.182;2022-11-15T07:56:22;11.80;;;7.33;;
4313;SDS011;2170;48.794;9.182;2022-11-15T07:58:49;9.23;;;8.33;;
4313;SDS011;2170;48.794;9.182;2022-11-15T08:01:17;12.33;;;9.03;;
4313;SDS011;2170;48.794;9.182;2022-11-15T08:03:45;9.37;;;7.97;;
4313;SDS011;2170;48.794;9.182;2022-11-15T08:06:12;9.90;;;8.77;;
4313;SDS011;2170;48.794;9.182;2022-11-15T08:08:39;11.37;;;8.97;;
4313;SDS011;2170;48.794;9.182;2022-11-15T08:11:06;11.40;;;9.20;;
4313;SDS011;2170;48.794;9.182;2022-11-15T08:13:33;10.73;;;8.57;;
4313;SDS011;2170;48.794;9.182;2022-11-15T08:16:00;9.80;;;8.80;;
4313;SDS011;2170;48.794;9.182;2022-11-15T08:18:30;10.90;;;8.90;;
4313;SDS011;2170;48.794;9.182;2022-11-15T08:20:59;9.53;;;8.50;;
4313;SDS011;2170;48.794;9.182;2022-11-15T08:23:26;13.10;;;9.73;;
4313;SDS011;2170;48.794;9.182;2022-11-15T08:25:58;14.03;;;9.73;;
4313;SDS011;2170;48.794;9.182;2022-11-15T08:28:25;10.23;;;9.17;;
4313;SDS011;2170;48.794;9.182;2022-11-15T08:30:52;11.57;;;9.47;;
4313;SDS011;2170;48.794;9.182;2022-11-15T08:33:19;11.63;;;8.87;;
4313;SDS011;2170;48.794;9.182;2022-11-15T08:35:46;12.23;;;9.20;;
4313;SDS011;2170;48.794;9.182;2022-11-15T08:38:15;9.67;;;8.73;;
4313;SDS011;2170;48.794;9.182;2022-11-15T08:40:42;10.70;;;9.30;;
4313;SDS011;2170;48.794;9.182;2022-11-15T08:43:09;16.33;;;10.37;;
4313;SDS011;2170;48.794;9.182;2022-11-15T08:45:36;20.23;;;10.27;;
4313;SDS011;2170;48.794;9.182;2022-11-15T08:48:03;29.03;;;12.23;;
4313;SDS011;2170;48.794;9.182;2022-11-15T08:50:30;18.10;;;8.90;;
4313;SDS011;2170;48.794;9.182;2022-11-15T08:52:58;16.30;;;8.80;;
4313;SDS011;2170;48.794;9.182;2022-11-15T08:55:31;14.43;;;8.53;;
4313;SDS011;2170;48.794;9.182;2022-11-15T08:57:58;11.10;;;8.63;;
4313;SDS011;2170;48.794;9.182;2022-11-15T09:00:25;8.13;;;7.43;;
4313;SDS011;2170;48.794;9.182;2022-11-15T09:02:52;9.20;;;6.50;;
4313;SDS011;2170;48.794;9.182;2022-11-15T09:05:19;7.50;;;6.80;;
4313;SDS011;2170;48.794;9.182;2022-11-15T09:07:47;11.63;;;7.10;;
4313;SDS011;2170;48.794;9.182;2022-11-15T09:10:14;8.37;;;7.03;;
4313;SDS011;2170;48.794;9.182;2022-11-15T09:12:42;7.10;;;6.50;;
4313;SDS011;2170;48.794;9.182;2022-11-15T09:15:13;8.47;;;6.27;;
4313;SDS011;2170;48.794;9.182;2022-11-15T09:17:40;11.33;;;7.50;;
4313;SDS011;2170;48.794;9.182;2022-11-15T09:20:07;8.20;;;6.60;;
4313;SDS011;2170;48.794;9.182;2022-11-15T09:22:35;8.23;;;6.00;;
4313;SDS011;2170;48.794;9.182;2022-11-15T09:25:03;6.97;;;6.27;;
4313;SDS011;2170;48.794;9.182;2022-11-15T09:27:31;8.77;;;6.60;;
4313;SDS011;2170;48.794;9.182;2022-11-15T09:29:59;12.20;;;6.83;;
4313;SDS011;2170;48.794;9.182;2022-11-15T09:32:27;19.40;;;7.73;;
4313;SDS011;2170;48.794;9.182;2022-11-15T09:34:55;22.90;;;7.17;;
4313;SDS011;2170;48.794;9.182;2022-11-15T09:37:22;11.57;;;7.17;;
4313;SDS011;2170;48.794;9.182;2022-11-15T09:39:49;10.00;;;7.50;;
4313;SDS011;2170;48.794;9.182;2022-11-15T09:42:20;7.13;;;6.53;;
4313;SDS011;2170;48.794;9.182;2022-11-15T09:44:54;9.77;;;6.83;;
4313;SDS011;2170;48.794;9.182;2022-11-15T09:47:31;8.67;;;7.30;;
4313;SDS011;2170;48.794;9.182;2022-11-15T09:50:08;8.60;;;6.60;;
4313;SDS011;2170;48.794;9.182;2022-11-15T09:52:35;13.23;;;6.90;;
4313;SDS011;2170;48.794;9.182;2022-11-15T09:55:03;14.00;;;7.33;;
4313;SDS011;2170;48.794;9.182;2022-11-15T09:57:38;13.13;;;7.50;;
4313;SDS011;2170;48.794;9.182;2022-11-15T10:00:11;12.33;;;7.07;;
4313;SDS011;2170;48.794;9.182;2022-11-15T10:02:46;11.90;;;7.97;;
4313;SDS011;2170;48.794;9.182;2022-11-15T10:05:16;11.20;;;5.93;;
4313;SDS011;2170;48.794;9.182;2022-11-15T10:07:46;8.03;;;6.73;;
4313;SDS011;2170;48.794;9.182;2022-11-15T10:10:17;8.53;;;6.60;;
4313;SDS011;2170;48.794;9.182;2022-11-15T10:12:47;20.47;;;7.43;;
4313;SDS011;2170;48.794;9.182;2022-11-15T10:15:15;24.63;;;7.63;;
4313;SDS011;2170;48.794;9.182;2022-11-15T10:17:57;15.93;;;7.50;;
4313;SDS011;2170;48.794;9.182;2022-11-15T10:20:26;16.90;;;5.93;;
4313;SDS011;2170;48.794;9.182;2022-11-15T10:22:55;8.83;;;6.90;;
4313;SDS011;2170;48.794;9.182;2022-11-15T10:25:22;9.80;;;5.90;;
4313;SDS011;2170;48.794;9.182;2022-11-15T10:27:55;7.40;;;6.03;;
4313;SDS011;2170;48.794;9.182;2022-11-15T10:30:30;8.10;;;6.10;;
4313;SDS011;2170;48.794;9.182;2022-11-15T10:32:59;7.37;;;6.40;;
4313;SDS011;2170;48.794;9.182;2022-11-15T10:35:35;9.10;;;6.13;;
4313;SDS011;2170;48.794;9.182;2022-11-15T10:38:04;7.40;;;6.20;;
4313;SDS011;2170;48.794;9.182;2022-11-15T10:40:31;9.80;;;7.03;;
4313;SDS011;2170;48.794;9.182;2022-11-15T10:43:04;16.60;;;6.90;;
4313;SDS011;2170;48.794;9.182;2022-11-15T10:45:32;14.40;;;6.80;;
4313;SDS011;2170;48.794;9.182;2022-11-15T10:50:43;11.27;;;5.90;;
4313;SDS011;2170;48.794;9.182;2022-11-15T10:53:12;7.20;;;5.90;;
4313;SDS011;2170;48.794;9.182;2022-11-15T10:55:42;6.27;;;5.37;;
4313;SDS011;2170;48.794;9.182;2022-11-15T10:58:19;6.40;;;5.30;;
4313;SDS011;2170;48.794;9.182;2022-11-15T11:00:47;7.00;;;5.20;;
4313;SDS011;2170;48.794;9.182;2022-11-15T11:03:23;6.80;;;6.10;;
4313;SDS011;2170;48.794;9.182;2022-11-15T11:06:02;9.50;;;6.00;;
4313;SDS011;2170;48.794;9.182;2022-11-15T11:08:30;9.23;;;6.57;;
4313;SDS011;2170;48.794;9.182;2022-11-15T11:10:59;9.40;;;7.13;;
4313;SDS011;2170;48.794;9.182;2022-11-15T11:13:27;10.63;;;7.20;;
4313;SDS011;2170;48.794;9.182;2022-11-15T11:15:56;8.67;;;7.17;;
4313;SDS011;2170;48.794;9.182;2022-11-15T11:18:25;9.93;;;7.00;;
4313;SDS011;2170;48.794;9.182;2022-11-15T11:20:54;9.17;;;6.80;;
4313;SDS011;2170;48.794;9.182;2022-11-15T11:23:32;10.37;;;7.50;;
4313;SDS011;2170;48.794;9.182;2022-11-15T11:26:01;12.57;;;7.27;;
4313;SDS011;2170;48.794;9.182;2022-11-15T11:28:37;9.10;;;6.37;;
4313;SDS011;2170;48.794;9.182;2022-11-15T11:31:10;11.87;;;6.63;;
4313;SDS011;2170;48.794;9.182;2022-11-15T11:33:41;7.13;;;6.40;;
4313;SDS011;2170;48.794;9.182;2022-11-15T11:36:12;8.80;;;6.77;;
4313;SDS011;2170;48.794;9.182;2022-11-15T11:38:53;12.13;;;7.10;;
4313;SDS011;2170;48.794;9.182;2022-11-15T11:41:27;9.87;;;7.20;;
4313;SDS011;2170;48.794;9.182;2022-11-15T11:44:00;10.30;;;7.73;;
4313;SDS011;2170;48.794;9.182;2022-11-15T11:46:38;8.80;;;7.93;;
4313;SDS011;2170;48.794;9.182;2022-11-15T11:49:08;12.60;;;9.00;;
4313;SDS011;2170;48.794;9.182;2022-11-15T11:51:38;9.30;;;8.40;;
4313;SDS011;2170;48.794;9.182;2022-11-15T11:54:09;8.33;;;7.50;;
4313;SDS011;2170;48.794;9.182;2022-11-15T11:56:39;8.40;;;6.33;;
4313;SDS011;2170;48.794;9.182;2022-11-15T11:59:09;10.87;;;6.70;;
4313;SDS011;2170;48.794;9.182;2022-11-15T12:01:41;7.93;;;7.20;;
4313;SDS011;2170;48.794;9.182;2022-11-15T12:04:09;8.93;;;6.70;;
4313;SDS011;2170;48.794;9.182;2022-11-15T12:06:41;10.30;;;7.43;;
4313;SDS011;2170;48.794;9.182;2022-11-15T12:09:14;12.97;;;8.20;;
4313;SDS011;2170;48.794;9.182;2022-11-15T12:11:43;12.33;;;7.33;;
4313;SDS011;2170;48.794;9.182;2022-11-15T12:14:16;10.10;;;7.10;;
4313;SDS011;2170;48.794;9.182;2022-11-15T12:16:44;9.37;;;7.43;;
4313;SDS011;2170;48.794;9.182;2022-11-15T12:19:12;10.13;;;7.23;;
4313;SDS011;2170;48.794;9.182;2022-11-15T12:21:41;12.80;;;7.83;;
4313;SDS011;2170;48.794;9.182;2022-11-15T12:24:13;8.67;;;6.83;;
4313;SDS011;2170;48.794;9.182;2022-11-15T12:26:41;10.57;;;7.00;;
4313;SDS011;2170;48.794;9.182;2022-11-15T12:29:14;9.53;;;7.73;;
4313;SDS011;2170;48.794;9.182;2022-11-15T12:31:43;9.07;;;7.07;;
4313;SDS011;2170;48.794;9.182;2022-11-15T12:34:28;12.70;;;7.07;;
4313;SDS011;2170;48.794;9.182;2022-11-15T12:36:56;9.07;;;6.60;;
4313;SDS011;2170;48.794;9.182;2022-11-15T12:42:36;7.90;;;6.40;;
4313;SDS011;2170;48.794;9.182;2022-11-15T12:45:22;11.03;;;7.90;;
4313;SDS011;2170;48.794;9.182;2022-11-15T12:47:50;10.97;;;6.87;;
4313;SDS011;2170;48.794;9.182;2022-11-15T12:50:21;9.77;;;6.33;;
4313;SDS011;2170;48.794;9.182;2022-11-15T12:58:40;9.33;;;7.30;;
4313;SDS011;2170;48.794;9.182;2022-11-15T13:01:08;9.77;;;7.37;;
4313;SDS011;2170;48.794;9.182;2022-11-15T13:03:36;7.97;;;6.10;;
4313;SDS011;2170;48.794;9.182;2022-11-15T13:11:57;7.70;;;6.90;;
4313;SDS011;2170;48.794;9.182;2022-11-15T13:14:45;7.90;;;7.10;;
4313;SDS011;2170;48.794;9.182;2022-11-15T13:17:17;8.23;;;6.70;;
4313;SDS011;2170;48.794;9.182;2022-11-15T13:19:49;7.63;;;6.80;;
4313;SDS011;2170;48.794;9.182;2022-11-15T13:22:20;7.67;;;5.90;;
4313;SDS011;2170;48.794;9.182;2022-11-15T13:25:04;6.97;;;5.80;;
4313;SDS011;2170;48.794;9.182;2022-11-15T13:27:44;6.27;;;5.77;;
4313;SDS011;2170;48.794;9.182;2022-11-15T13:30:14;6.80;;;5.00;;
4313;SDS011;2170;48.794;9.182;2022-11-15T13:32:42;7.93;;;4.97;;
4313;SDS011;2170;48.794;9.182;2022-11-15T13:35:09;6.50;;;5.80;;
4313;SDS011;2170;48.794;9.182;2022-11-15T13:37:36;6.20;;;5.57;;
4313;SDS011;2170;48.794;9.182;2022-11-15T13:40:16;7.40;;;5.10;;
4313;SDS011;2170;48.794;9.182;2022-11-15T13:42:45;9.73;;;6.30;;
4313;SDS011;2170;48.794;9.182;2022-11-15T13:45:13;22.23;;;12.47;;
4313;SDS011;2170;48.794;9.182;2022-11-15T13:47:41;11.70;;;7.13;;
4313;SDS011;2170;48.794;9.182;2022-11-15T13:50:10;6.40;;;4.43;;
4313;SDS011;2170;48.794;9.182;2022-11-15T13:52:37;6.20;;;5.20;;
4313;SDS011;2170;48.794;9.182;2022-11-15T13:55:09;8.20;;;6.37;;
4313;SDS011;2170;48.794;9.182;2022-11-15T13:57:39;9.07;;;6.50;;
4313;SDS011;2170;48.794;9.182;2022-11-15T14:00:24;6.07;;;5.07;;
4313;SDS011;2170;48.794;9.182;2022-11-15T14:02:52;5.90;;;5.40;;
4313;SDS011;2170;48.794;9.182;2022-11-15T14:05:21;7.87;;;4.70;;
4313;SDS011;2170;48.794;9.182;2022-11-15T14:07:52;7.67;;;4.93;;
4313;SDS011;2170;48.794;9.182;2022-11-15T14:10:24;5.00;;;4.50;;
4313;SDS011;2170;48.794;9.182;2022-11-15T14:12:52;5.20;;;4.70;;
4313;SDS011;2170;48.794;9.182;2022-11-15T14:15:24;9.50;;;5.80;;
4313;SDS011;2170;48.794;9.182;2022-11-15T14:17:53;5.13;;;4.70;;
4313;SDS011;2170;48.794;9.182;2022-11-15T14:20:26;4.60;;;4.00;;
4313;SDS011;2170;48.794;9.182;2022-11-15T14:22:55;5.57;;;4.80;;
4313;SDS011;2170;48.794;9.182;2022-11-15T14:25:24;5.40;;;4.90;;
4313;SDS011;2170;48.794;9.182;2022-11-15T14:28:12;8.10;;;5.50;;
4313;SDS011;2170;48.794;9.182;2022-11-15T14:30:40;6.27;;;4.70;;
4313;SDS011;2170;48.794;9.182;2022-11-15T14:35:57;7.27;;;6.30;;
4313;SDS011;2170;48.794;9.182;2022-11-15T14:38:24;8.13;;;5.67;;
4313;SDS011;2170;48.794;9.182;2022-11-15T14:40:52;6.93;;;5.57;;
4313;SDS011;2170;48.794;9.182;2022-11-15T14:43:20;5.00;;;4.50;;
4313;SDS011;2170;48.794;9.182;2022-11-15T14:45:48;5.50;;;5.00;;
4313;SDS011;2170;48.794;9.182;2022-11-15T14:48:15;5.10;;;4.70;;
4313;SDS011;2170;48.794;9.182;2022-11-15T14:50:42;5.20;;;4.80;;
4313;SDS011;2170;48.794;9.182;2022-11-15T14:53:12;5.10;;;4.57;;
4313;SDS011;2170;48.794;9.182;2022-11-15T14:55:40;5.30;;;4.83;;
4313;SDS011;2170;48.794;9.182;2022-11-15T14:58:07;4.60;;;4.20;;
4313;SDS011;2170;48.794;9.182;2022-11-15T15:00:35;4.50;;;4.10;;
4313;SDS011;2170;48.794;9.182;2022-11-15T15:03:02;6.90;;;4.00;;
4313;SDS011;2170;48.794;9.182;2022-11-15T15:05:30;4.90;;;4.50;;
4313;SDS011;2170;48.794;9.182;2022-11-15T15:07:58;6.00;;;4.60;;
4313;SDS011;2170;48.794;9.182;2022-11-15T15:10:27;4.07;;;3.77;;
4313;SDS011;2170;48.794;9.182;2022-11-15T15:12:55;13.13;;;11.90;;
4313;SDS011;2170;48.794;9.182;2022-11-15T15:15:24;12.20;;;11.07;;
4313;SDS011;2170;48.794;9.182;2022-11-15T15:17:51;5.50;;;5.10;;
4313;SDS011;2170;48.794;9.182;2022-11-15T15:20:18;6.90;;;4.83;;
4313;SDS011;2170;48.794;9.182;2022-11-15T15:22:45;6.00;;;4.60;;
4313;SDS011;2170;48.794;9.182;2022-11-15T15:25:20;5.90;;;4.20;;
4313;SDS011;2170;48.794;9.182;2022-11-15T15:27:48;5.10;;;4.53;;
4313;SDS011;2170;48.794;9.182;2022-11-15T15:30:16;8.07;;;6.60;;
4313;SDS011;2170;48.794;9.182;2022-11-15T15:32:43;6.87;;;6.20;;
4313;SDS011;2170;48.794;9.182;2022-11-15T15:35:11;5.93;;;5.43;;
4313;SDS011;2170;48.794;9.182;2022-11-15T15:37:38;5.20;;;4.70;;
4313;SDS011;2170;48.794;9.182;2022-11-15T15:40:08;3.87;;;3.57;;
4313;SDS011;2170;48.794;9.182;2022-11-15T15:42:37;6.33;;;4.83;;
4313;SDS011;2170;48.794;9.182;2022-11-15T15:45:06;4.10;;;3.80;;
4313;SDS011;2170;48.794;9.182;2022-11-15T15:47:33;4.90;;;4.40;;
4313;SDS011;2170;48.794;9.182;2022-11-15T15:50:00;4.90;;;4.13;;
4313;SDS011;2170;48.794;9.182;2022-11-15T15:52:28;5.23;;;4.73;;